createdAt,value
2018-11-21T00:01:41.704Z,23.00
2018-11-21T00:04:10.936Z,24.20
2018-11-21T00:06:41.082Z,22.00
2018-11-21T00:09:10.592Z,23.93
2018-11-21T00:11:39.847Z,24.27
2018-11-21T00:14:09.613Z,21.77
2018-11-21T00:16:38.835Z,22.37
2018-11-21T00:19:08.360Z,24.63
2018-11-21T00:21:37.684Z,23.13
2018-11-21T00:24:07.007Z,22.27
2018-11-21T00:26:36.336Z,22.73
2018-11-21T00:29:06.789Z,22.37
2018-11-21T00:31:36.017Z,24.43
2018-11-21T00:34:05.779Z,23.60
2018-11-21T00:36:35.189Z,22.83
2018-11-21T00:39:05.981Z,23.70
2018-11-21T00:41:35.209Z,24.07
2018-11-21T00:44:04.889Z,23.93
2018-11-21T00:46:34.853Z,25.17
2018-11-21T00:49:04.072Z,24.93
2018-11-21T00:51:33.482Z,23.77
2018-11-21T00:54:03.186Z,22.43
2018-11-21T00:56:32.397Z,23.10
2018-11-21T00:59:01.954Z,23.33
2018-11-21T01:01:31.167Z,24.27
2018-11-21T01:04:00.389Z,22.90
2018-11-21T01:06:30.995Z,23.13
2018-11-21T01:09:00.211Z,23.30
2018-11-21T01:11:29.460Z,23.20
2018-11-21T01:13:59.009Z,21.93
2018-11-21T01:16:28.276Z,22.97
2018-11-21T01:18:57.863Z,23.33
2018-11-21T01:21:27.464Z,22.87
2018-11-21T01:23:56.728Z,22.80
2018-11-21T01:26:26.005Z,21.73
2018-11-21T01:28:55.688Z,21.77
2018-11-21T01:31:25.040Z,23.57
2018-11-21T01:33:54.267Z,22.87
2018-11-21T01:36:23.668Z,21.60
2018-11-21T01:38:53.244Z,23.60
2018-11-21T01:41:23.357Z,22.13
2018-11-21T01:43:53.013Z,24.30
2018-11-21T01:46:22.243Z,21.90
2018-11-21T01:48:51.701Z,23.90
2018-11-21T01:51:20.943Z,22.63
2018-11-21T01:53:50.194Z,22.77
2018-11-21T01:56:19.907Z,19.87
2018-11-21T01:58:49.151Z,19.90
2018-11-21T02:01:18.803Z,21.50
2018-11-21T02:03:48.045Z,21.90
2018-11-21T02:06:17.916Z,21.83
2018-11-21T02:08:47.424Z,22.80
2018-11-21T02:11:16.998Z,22.50
2018-11-21T02:13:46.941Z,23.33
2018-11-21T02:16:16.493Z,22.87
2018-11-21T02:18:45.768Z,22.53
2018-11-21T02:21:15.083Z,24.73
2018-11-21T02:23:44.362Z,22.67
2018-11-21T02:26:13.965Z,23.60
2018-11-21T02:28:43.807Z,25.07
2018-11-21T02:31:13.160Z,23.73
2018-11-21T02:33:42.380Z,23.53
2018-11-21T02:36:11.630Z,23.57
2018-11-21T02:38:40.851Z,24.27
2018-11-21T02:41:10.131Z,23.47
2018-11-21T02:43:39.519Z,23.00
2018-11-21T02:46:09.728Z,23.40
2018-11-21T02:48:39.102Z,23.40
2018-11-21T02:51:08.551Z,22.80
2018-11-21T02:53:37.783Z,23.37
2018-11-21T02:56:07.324Z,23.87
2018-11-21T02:58:36.607Z,23.83
2018-11-21T03:01:06.024Z,23.33
2018-11-21T03:03:35.689Z,23.53
2018-11-21T03:06:04.955Z,22.47
2018-11-21T03:08:35.467Z,22.53
2018-11-21T03:11:04.711Z,23.30
2018-11-21T03:13:34.021Z,22.77
2018-11-21T03:16:04.764Z,21.30
2018-11-21T03:18:33.990Z,22.07
2018-11-21T03:21:03.801Z,22.07
2018-11-21T03:23:33.388Z,21.00
2018-11-21T03:26:02.629Z,22.30
2018-11-21T03:28:32.916Z,22.20
2018-11-21T03:31:02.142Z,20.73
2018-11-21T03:33:31.431Z,22.60
2018-11-21T03:36:01.080Z,21.93
2018-11-21T03:38:31.057Z,20.47
2018-11-21T03:41:00.297Z,21.00
2018-11-21T03:43:29.537Z,20.90
2018-11-21T03:45:59.065Z,21.40
2018-11-21T03:48:28.344Z,19.20
2018-11-21T03:50:57.585Z,19.90
2018-11-21T03:53:27.543Z,21.03
2018-11-21T03:55:56.774Z,20.67
2018-11-21T03:58:26.359Z,20.57
2018-11-21T04:00:56.124Z,20.93
2018-11-21T04:03:25.366Z,22.03
2018-11-21T04:05:54.804Z,20.70
2018-11-21T04:08:24.170Z,20.80
2018-11-21T04:10:53.833Z,20.57
2018-11-21T04:13:24.039Z,20.63
2018-11-21T04:15:53.664Z,20.83
2018-11-21T04:18:22.889Z,18.70
2018-11-21T04:20:52.225Z,20.00
2018-11-21T04:23:21.446Z,19.67
2018-11-21T04:25:51.644Z,19.80
2018-11-21T04:28:20.890Z,20.10
2018-11-21T04:30:50.371Z,20.20
2018-11-21T04:33:19.882Z,18.53
2018-11-21T04:35:49.473Z,18.40
2018-11-21T04:38:18.695Z,19.40
2018-11-21T04:40:48.328Z,19.33
2018-11-21T04:43:18.042Z,18.30
2018-11-21T04:45:47.266Z,17.73
2018-11-21T04:48:16.516Z,17.77
2018-11-21T04:50:45.765Z,18.40
2018-11-21T04:53:15.309Z,18.90
2018-11-21T04:55:44.615Z,17.23
2018-11-21T04:58:13.920Z,17.90
2018-11-21T05:00:43.326Z,19.70
2018-11-21T05:03:12.554Z,18.00
2018-11-21T05:05:41.949Z,17.33
2018-11-21T05:08:11.168Z,17.63
2018-11-21T05:10:40.540Z,18.70
2018-11-21T05:13:09.802Z,17.40
2018-11-21T05:15:39.814Z,17.73
2018-11-21T05:18:09.120Z,18.63
2018-11-21T05:20:38.752Z,17.07
2018-11-21T05:23:07.972Z,15.70
2018-11-21T05:25:37.201Z,16.43
2018-11-21T05:28:06.979Z,16.40
2018-11-21T05:30:36.222Z,15.80
2018-11-21T05:33:05.764Z,15.93
2018-11-21T05:35:35.369Z,16.80
2018-11-21T05:38:04.602Z,15.43
2018-11-21T05:40:34.098Z,15.53
2018-11-21T05:43:03.373Z,17.33
2018-11-21T05:45:32.607Z,15.77
2018-11-21T05:48:01.886Z,14.90
2018-11-21T05:50:31.411Z,14.67
2018-11-21T05:53:01.581Z,15.27
2018-11-21T05:55:30.812Z,16.07
2018-11-21T05:58:00.085Z,16.60
2018-11-21T06:00:29.302Z,15.60
2018-11-21T06:02:58.531Z,15.03
2018-11-21T06:05:27.787Z,16.00
2018-11-21T06:07:57.929Z,15.80
2018-11-21T06:10:27.165Z,14.17
2018-11-21T06:12:56.867Z,15.13
2018-11-21T06:15:26.198Z,15.60
2018-11-21T06:17:55.735Z,16.37
2018-11-21T06:20:24.998Z,14.40
2018-11-21T06:22:54.631Z,15.60
2018-11-21T06:25:24.972Z,13.90
2018-11-21T06:27:54.207Z,15.87
2018-11-21T06:30:23.453Z,15.70
2018-11-21T06:32:52.660Z,19.73
2018-11-21T06:35:22.107Z,15.40
2018-11-21T06:37:51.375Z,14.53
2018-11-21T06:40:20.612Z,15.40
2018-11-21T06:42:57.388Z,14.20
2018-11-21T06:45:27.808Z,14.27
2018-11-21T06:47:57.119Z,14.67
2018-11-21T06:50:30.025Z,16.10
2018-11-21T06:52:59.482Z,13.70
2018-11-21T06:55:29.205Z,14.53
2018-11-21T06:57:59.660Z,14.00
2018-11-21T07:00:29.916Z,14.13
2018-11-21T07:03:00.138Z,12.97
2018-11-21T07:05:29.755Z,14.93
2018-11-21T07:08:01.249Z,13.50
2018-11-21T07:10:35.644Z,12.90
2018-11-21T07:13:07.706Z,12.60
2018-11-21T07:15:34.987Z,12.27
2018-11-21T07:18:04.315Z,13.70
2018-11-21T07:20:36.341Z,13.20
2018-11-21T07:23:14.161Z,12.87
2018-11-21T07:25:43.377Z,13.70
2018-11-21T07:28:13.049Z,12.77
2018-11-21T07:30:42.161Z,14.07
2018-11-21T07:33:11.377Z,13.67
2018-11-21T07:35:41.858Z,12.87
2018-11-21T07:38:11.120Z,13.20
2018-11-21T07:40:41.160Z,11.87
2018-11-21T07:43:10.409Z,12.77
2018-11-21T07:45:39.865Z,13.60
2018-11-21T07:48:12.543Z,13.07
2018-11-21T07:50:41.761Z,11.47
2018-11-21T07:53:14.057Z,10.90
2018-11-21T07:55:43.432Z,11.70
2018-11-21T07:58:17.486Z,12.13
2018-11-21T08:01:05.066Z,11.77
2018-11-21T08:03:56.090Z,10.40
2018-11-21T08:06:44.467Z,9.97
2018-11-21T08:09:44.862Z,11.83
2018-11-21T08:12:33.265Z,11.53
2018-11-21T08:15:33.461Z,11.40
2018-11-21T08:18:22.759Z,11.40
2018-11-21T08:21:05.770Z,10.97
2018-11-21T08:23:55.722Z,12.30
2018-11-21T08:26:44.440Z,11.37
2018-11-21T08:29:13.704Z,10.90
2018-11-21T08:31:45.452Z,12.03
2018-11-21T08:34:12.382Z,10.70
2018-11-21T08:36:42.602Z,10.43
2018-11-21T08:39:14.909Z,11.03
2018-11-21T08:41:44.478Z,10.10
2018-11-21T08:44:13.881Z,10.43
2018-11-21T08:46:43.108Z,10.90
2018-11-21T08:49:13.931Z,11.23
2018-11-21T08:51:43.857Z,9.63
2018-11-21T08:54:13.241Z,9.80
2018-11-21T08:56:42.497Z,10.53
2018-11-21T08:59:12.084Z,9.73
2018-11-21T09:01:41.357Z,9.90
2018-11-21T09:04:11.518Z,9.50
2018-11-21T09:06:40.820Z,9.30
2018-11-21T09:09:10.685Z,10.03
2018-11-21T09:11:39.909Z,9.40
2018-11-21T09:14:10.323Z,9.90
2018-11-21T09:16:39.543Z,10.10
2018-11-21T09:19:12.041Z,9.80
2018-11-21T09:21:41.341Z,10.30
2018-11-21T09:24:10.582Z,8.83
2018-11-21T09:26:39.852Z,9.07
2018-11-21T09:29:09.095Z,9.27
2018-11-21T09:31:38.328Z,8.60
2018-11-21T09:34:07.957Z,9.50
2018-11-21T09:36:37.658Z,9.20
2018-11-21T09:39:09.375Z,9.13
2018-11-21T09:41:40.992Z,8.83
2018-11-21T09:44:10.215Z,9.37
2018-11-21T09:46:39.428Z,9.60
2018-11-21T09:49:09.161Z,8.60
2018-11-21T09:52:37.023Z,8.53
2018-11-21T09:55:08.457Z,8.93
2018-11-21T09:57:39.724Z,8.10
2018-11-21T10:00:47.409Z,8.30
2018-11-21T10:03:20.943Z,8.83
2018-11-21T10:05:55.510Z,8.00
2018-11-21T10:08:48.360Z,8.80
2018-11-21T10:11:19.555Z,7.80
2018-11-21T10:13:52.001Z,7.87
2018-11-21T10:16:23.318Z,8.90
2018-11-21T10:18:55.740Z,8.30
2018-11-21T10:21:28.984Z,8.60
2018-11-21T10:24:00.159Z,8.40
2018-11-21T10:26:31.492Z,9.90
2018-11-21T10:29:02.536Z,8.40
2018-11-21T10:31:33.410Z,8.57
2018-11-21T10:34:04.165Z,8.90
2018-11-21T10:36:34.942Z,8.00
2018-11-21T10:39:08.275Z,8.40
2018-11-21T10:41:39.472Z,7.87
2018-11-21T10:44:11.448Z,7.03
2018-11-21T10:46:42.239Z,7.97
2018-11-21T10:49:14.252Z,7.23
2018-11-21T10:51:45.701Z,6.80
2018-11-21T10:54:16.477Z,7.73
2018-11-21T10:56:49.631Z,7.30
2018-11-21T10:59:19.835Z,7.60
2018-11-21T11:02:14.989Z,8.13
2018-11-21T11:05:13.216Z,8.00
2018-11-21T11:08:08.607Z,8.00
2018-11-21T11:10:57.961Z,6.77
2018-11-21T11:13:49.172Z,6.90
2018-11-21T11:16:40.119Z,9.20
2018-11-21T11:19:29.957Z,8.27
2018-11-21T11:22:19.312Z,6.77
2018-11-21T11:25:18.838Z,7.33
2018-11-21T11:28:14.619Z,7.00
2018-11-21T11:30:52.360Z,7.23
2018-11-21T11:33:56.526Z,6.53
2018-11-21T11:36:58.157Z,7.20
2018-11-21T11:39:53.847Z,5.23
2018-11-21T11:42:43.400Z,6.10
2018-11-21T11:45:35.953Z,7.20
2018-11-21T11:48:25.139Z,7.27
2018-11-21T11:51:23.695Z,6.50
2018-11-21T11:54:12.312Z,7.90
2018-11-21T11:57:02.245Z,6.40
2018-11-21T12:00:10.252Z,7.30
2018-11-21T12:03:02.646Z,7.70
2018-11-21T12:05:54.903Z,7.00
2018-11-21T12:08:44.369Z,7.40
2018-11-21T12:11:45.862Z,7.87
2018-11-21T12:14:37.987Z,7.33
2018-11-21T12:17:27.647Z,7.13
2018-11-21T12:20:34.087Z,6.63
2018-11-21T12:23:24.363Z,6.77
2018-11-21T12:26:12.256Z,6.50
2018-11-21T12:29:05.140Z,7.40
2018-11-21T12:31:57.876Z,6.57
2018-11-21T12:34:48.273Z,6.33
2018-11-21T12:37:40.621Z,6.20
2018-11-21T12:40:23.788Z,7.43
2018-11-21T12:43:16.209Z,6.40
2018-11-21T12:46:05.023Z,6.50
2018-11-21T12:49:09.745Z,6.93
2018-11-21T12:51:58.101Z,8.00
2018-11-21T12:54:46.858Z,6.63
2018-11-21T12:57:51.448Z,6.80
2018-11-21T13:00:46.674Z,7.63
2018-11-21T13:03:45.904Z,7.30
2018-11-21T13:06:53.316Z,7.13
2018-11-21T13:09:56.751Z,7.60
2018-11-21T13:12:59.196Z,8.00
2018-11-21T13:15:58.063Z,6.60
2018-11-21T13:18:46.415Z,6.97
2018-11-21T13:21:41.604Z,7.30
2018-11-21T13:24:33.831Z,7.00
2018-11-21T13:27:15.355Z,5.77
2018-11-21T13:30:03.017Z,7.20
2018-11-21T13:32:52.716Z,6.67
2018-11-21T13:35:45.288Z,7.07
2018-11-21T13:38:36.005Z,6.40
2018-11-21T13:41:30.199Z,7.23
2018-11-21T13:44:19.583Z,8.93
2018-11-21T13:47:15.218Z,7.10
2018-11-21T13:50:13.826Z,7.93
2018-11-21T13:53:18.395Z,7.80
2018-11-21T13:55:51.034Z,7.60
2018-11-21T13:58:22.248Z,7.90
2018-11-21T14:00:53.139Z,8.37
2018-11-21T14:03:23.900Z,8.13
2018-11-21T14:05:54.656Z,7.70
2018-11-21T14:08:25.368Z,7.70
2018-11-21T14:10:56.465Z,6.67
2018-11-21T14:13:27.308Z,6.40
2018-11-21T14:15:58.060Z,6.27
2018-11-21T14:18:29.008Z,7.13
2018-11-21T14:21:00.777Z,6.90
2018-11-21T14:23:31.516Z,7.37
2018-11-21T14:26:02.503Z,7.73
2018-11-21T14:28:33.504Z,7.90
2018-11-21T14:31:04.340Z,8.40
2018-11-21T14:33:35.504Z,7.73
2018-11-21T14:36:06.652Z,7.40
2018-11-21T14:38:37.540Z,7.07
2018-11-21T14:41:08.969Z,7.83
2018-11-21T14:43:40.190Z,7.83
2018-11-21T14:46:11.316Z,8.27
2018-11-21T14:48:42.716Z,8.50
2018-11-21T14:51:14.055Z,7.40
2018-11-21T14:53:45.203Z,7.70
2018-11-21T14:56:16.328Z,8.77
2018-11-21T14:58:47.458Z,8.20
2018-11-21T15:01:19.002Z,7.97
2018-11-21T15:03:49.847Z,8.77
2018-11-21T15:06:20.788Z,8.90
2018-11-21T15:08:51.716Z,7.90
2018-11-21T15:11:26.284Z,9.30
2018-11-21T15:13:57.003Z,6.90
2018-11-21T15:16:28.023Z,7.97
2018-11-21T15:18:59.201Z,7.57
2018-11-21T15:21:30.016Z,8.40
2018-11-21T15:24:01.175Z,8.23
2018-11-21T15:26:33.106Z,7.70
2018-11-21T15:29:03.828Z,8.53
2018-11-21T15:31:34.902Z,9.20
2018-11-21T15:34:05.828Z,8.40
2018-11-21T15:36:36.569Z,9.50
2018-11-21T15:39:10.768Z,9.17
2018-11-21T15:41:42.576Z,8.40
2018-11-21T15:44:13.888Z,8.50
2018-11-21T15:46:45.836Z,9.10
2018-11-21T15:49:21.289Z,9.30
2018-11-21T15:51:52.039Z,8.90
2018-11-21T15:54:26.388Z,9.20
2018-11-21T15:56:55.727Z,9.10
2018-11-21T15:59:28.048Z,10.50
2018-11-21T16:01:59.160Z,10.17
2018-11-21T16:04:30.315Z,9.47
2018-11-21T16:07:01.133Z,9.40
2018-11-21T16:09:31.977Z,9.40
2018-11-21T16:12:05.573Z,9.07
2018-11-21T16:14:36.633Z,8.77
2018-11-21T16:17:07.540Z,9.97
2018-11-21T16:19:38.436Z,9.73
2018-11-21T16:22:09.318Z,9.43
2018-11-21T16:24:40.492Z,9.77
2018-11-21T16:27:11.821Z,8.67
2018-11-21T16:29:43.704Z,10.37
2018-11-21T16:32:14.484Z,9.10
2018-11-21T16:34:46.236Z,9.20
2018-11-21T16:37:16.976Z,9.77
2018-11-21T16:39:47.712Z,8.83
2018-11-21T16:42:19.216Z,9.13
2018-11-21T16:44:50.146Z,10.33
2018-11-21T16:47:21.200Z,9.90
2018-11-21T16:49:51.962Z,9.83
2018-11-21T16:52:22.672Z,8.90
2018-11-21T16:54:54.111Z,9.70
2018-11-21T16:57:25.216Z,10.23
2018-11-21T16:59:55.944Z,10.27
2018-11-21T17:02:26.863Z,9.40
2018-11-21T17:04:57.771Z,9.50
2018-11-21T17:07:29.001Z,10.17
2018-11-21T17:10:02.876Z,10.23
2018-11-21T17:12:33.800Z,9.80
2018-11-21T17:15:04.839Z,11.20
2018-11-21T17:17:36.248Z,10.10
2018-11-21T17:20:10.180Z,9.93
2018-11-21T17:22:41.345Z,10.13
2018-11-21T17:25:26.175Z,11.10
2018-11-21T17:27:57.280Z,10.47
2018-11-21T17:30:29.201Z,11.33
2018-11-21T17:33:01.550Z,10.93
2018-11-21T17:35:32.445Z,10.10
2018-11-21T17:38:05.009Z,10.00
2018-11-21T17:40:43.299Z,11.67
2018-11-21T17:43:16.412Z,10.73
2018-11-21T17:45:49.675Z,11.27
2018-11-21T17:48:20.405Z,11.70
2018-11-21T17:50:56.213Z,12.63
2018-11-21T17:53:25.201Z,11.93
2018-11-21T17:55:58.723Z,12.07
2018-11-21T17:58:30.620Z,11.67
2018-11-21T18:01:01.672Z,10.93
2018-11-21T18:03:32.496Z,12.53
2018-11-21T18:06:04.022Z,11.03
2018-11-21T18:08:38.242Z,12.10
2018-11-21T18:11:10.192Z,11.27
2018-11-21T18:13:40.908Z,12.67
2018-11-21T18:16:14.423Z,12.80
2018-11-21T18:18:45.253Z,13.47
2018-11-21T18:21:19.820Z,12.97
2018-11-21T18:23:51.009Z,12.77
2018-11-21T18:26:43.808Z,13.97
2018-11-21T18:29:14.892Z,13.43
2018-11-21T18:31:49.671Z,13.60
2018-11-21T18:34:23.679Z,13.17
2018-11-21T18:36:58.333Z,13.50
2018-11-21T18:39:33.472Z,14.67
2018-11-21T18:42:05.851Z,13.03
2018-11-21T18:44:39.398Z,13.40
2018-11-21T18:47:10.123Z,13.90
2018-11-21T18:49:41.007Z,13.70
2018-11-21T18:52:11.723Z,12.27
2018-11-21T18:54:45.509Z,12.50
2018-11-21T18:57:58.391Z,13.33
2018-11-21T19:00:32.736Z,13.43
2018-11-21T19:03:06.235Z,13.80
2018-11-21T19:05:40.928Z,13.13
2018-11-21T19:08:11.890Z,13.97
2018-11-21T19:10:46.348Z,14.67
2018-11-21T19:13:18.077Z,13.97
2018-11-21T19:15:52.316Z,13.43
2018-11-21T19:18:23.567Z,14.53
2018-11-21T19:21:03.009Z,14.40
2018-11-21T19:23:35.390Z,15.77
2018-11-21T19:26:08.918Z,14.80
2018-11-21T19:28:38.839Z,14.20
2018-11-21T19:31:10.914Z,15.00
2018-11-21T19:33:41.771Z,16.03
2018-11-21T19:36:13.504Z,15.57
2018-11-21T19:38:44.623Z,14.87
2018-11-21T19:41:15.377Z,16.47
2018-11-21T19:43:50.167Z,16.23
2018-11-21T19:46:24.505Z,17.00
2018-11-21T19:48:55.864Z,16.67
2018-11-21T19:51:29.260Z,15.90
2018-11-21T19:54:00.812Z,17.77
2018-11-21T19:56:32.564Z,17.03
2018-11-21T19:59:03.308Z,17.50
2018-11-21T20:01:34.447Z,17.23
2018-11-21T20:04:05.405Z,19.30
2018-11-21T20:06:36.127Z,20.30
2018-11-21T20:09:11.663Z,19.37
2018-11-21T20:11:42.799Z,20.80
2018-11-21T20:14:13.539Z,19.47
2018-11-21T20:16:45.240Z,21.53
2018-11-21T20:19:17.348Z,20.13
2018-11-21T20:21:49.102Z,20.77
2018-11-21T20:24:21.301Z,20.00
2018-11-21T20:26:52.123Z,21.50
2018-11-21T20:29:22.908Z,20.60
2018-11-21T20:31:55.769Z,22.40
2018-11-21T20:34:26.644Z,21.57
2018-11-21T20:36:57.582Z,21.50
2018-11-21T20:39:28.536Z,21.97
2018-11-21T20:41:59.615Z,20.70
2018-11-21T20:44:30.740Z,22.80
2018-11-21T20:47:02.040Z,23.70
2018-11-21T20:49:32.952Z,22.67
2018-11-21T20:52:22.547Z,23.13
2018-11-21T20:54:53.274Z,24.00
2018-11-21T20:57:24.000Z,23.67
2018-11-21T20:59:54.765Z,23.27
2018-11-21T21:02:25.575Z,24.63
2018-11-21T21:04:56.817Z,24.10
2018-11-21T21:07:28.226Z,24.93
2018-11-21T21:09:58.968Z,24.80
2018-11-21T21:12:29.809Z,24.73
2018-11-21T21:15:00.791Z,24.17
2018-11-21T21:17:31.891Z,23.80
2018-11-21T21:20:03.012Z,26.70
2018-11-21T21:22:34.030Z,26.30
2018-11-21T21:25:25.177Z,24.67
2018-11-21T21:27:55.924Z,24.93
2018-11-21T21:30:28.519Z,26.27
2018-11-21T21:32:59.268Z,26.63
2018-11-21T21:35:31.480Z,25.87
2018-11-21T21:38:02.200Z,25.87
2018-11-21T21:40:32.915Z,26.10
2018-11-21T21:43:04.374Z,27.10
2018-11-21T21:45:35.168Z,28.57
2018-11-21T21:48:06.367Z,26.50
2018-11-21T21:50:37.975Z,26.30
2018-11-21T21:53:08.747Z,25.47
2018-11-21T21:55:39.574Z,26.10
2018-11-21T21:58:10.940Z,26.33
2018-11-21T22:00:42.092Z,26.43
2018-11-21T22:03:12.924Z,27.03
2018-11-21T22:05:44.055Z,27.17
2018-11-21T22:08:17.016Z,25.20
2018-11-21T22:10:49.597Z,27.70
2018-11-21T22:13:20.558Z,25.87
2018-11-21T22:15:51.276Z,29.20
2018-11-21T22:18:22.552Z,28.03
2018-11-21T22:20:53.764Z,27.27
2018-11-21T22:23:24.960Z,25.60
2018-11-21T22:25:57.846Z,25.37
2018-11-21T22:28:28.584Z,27.30
2018-11-21T22:30:59.388Z,26.50
2018-11-21T22:33:30.308Z,25.80
2018-11-21T22:36:02.845Z,25.07
2018-11-21T22:38:32.142Z,25.83
2018-11-21T22:41:03.307Z,25.90
2018-11-21T22:43:34.033Z,25.97
2018-11-21T22:46:05.176Z,27.17
2018-11-21T22:48:36.278Z,25.60
2018-11-21T22:51:07.060Z,25.37
2018-11-21T22:53:37.901Z,27.83
2018-11-21T22:56:08.653Z,26.23
2018-11-21T22:58:39.363Z,25.97
2018-11-21T23:01:10.639Z,26.10
2018-11-21T23:03:41.620Z,25.17
2018-11-21T23:06:12.347Z,24.67
2018-11-21T23:08:48.167Z,24.70
2018-11-21T23:11:13.819Z,23.83
2018-11-21T23:13:45.025Z,24.83
2018-11-21T23:16:15.940Z,23.90
2018-11-21T23:18:47.625Z,23.53
2018-11-21T23:21:18.363Z,24.43
2018-11-21T23:23:50.603Z,21.40
2018-11-21T23:26:21.361Z,20.17
2018-11-21T23:28:52.492Z,19.10
2018-11-21T23:31:23.355Z,17.77
2018-11-21T23:33:54.420Z,18.40
2018-11-21T23:36:25.153Z,19.17
2018-11-21T23:38:55.889Z,18.70
2018-11-21T23:41:26.745Z,19.03
2018-11-21T23:43:57.469Z,17.43
2018-11-21T23:46:28.471Z,16.33
2018-11-21T23:48:59.646Z,18.67
2018-11-21T23:51:49.242Z,19.20
2018-11-21T23:54:19.982Z,19.50
2018-11-21T23:57:15.562Z,20.17
2018-11-21T23:59:21.696Z,22.80
